Time,TemperatureF,DewpointF,PressureIn,WindDirection,WindDirectionDegrees,WindSpeedMPH,WindSpeedGustMPH,Humidity,HourlyPrecipIn,Conditions,Clouds,dailyrainin,SoftwareType,DateUTC
2013-02-23 00:03:00,14.7,2.0,29.91,West,271,3.0,27.0,56,0.00,,,0.00,weatherlink.com 1.10,2013-02-23 07:03:00,
2013-02-23 00:18:00,14.8,1.0,29.90,WNW,283,13.0,23.0,55,0.00,,,0.00,weatherlink.com 1.10,2013-02-23 07:18:00,
2013-02-23 00:33:00,14.7,2.0,29.88,WNW,288,16.0,30.0,56,0.00,,,0.00,weatherlink.com 1.10,2013-02-23 07:33:00,
2013-02-23 00:48:00,14.6,2.0,29.87,SW,233,11.0,28.0,58,0.00,,,0.00,weatherlink.com 1.10,2013-02-23 07:48:00,
2013-02-23 01:03:00,14.7,2.0,29.87,West,262,17.0,30.0,57,0.00,,,0.00,weatherlink.com 1.10,2013-02-23 08:03:00,
2013-02-23 01:18:00,14.7,2.0,29.86,SW,234,17.0,30.0,57,0.00,,,0.00,weatherlink.com 1.10,2013-02-23 08:18:00,
2013-02-23 01:33:00,14.9,2.0,29.86,SSW,211,6.0,32.0,56,0.00,,,0.00,weatherlink.com 1.10,2013-02-23 08:33:00,
2013-02-23 01:48:00,15.2,2.0,29.87,WSW,238,10.0,24.0,55,0.00,,,0.00,weatherlink.com 1.10,2013-02-23 08:48:00,
2013-02-23 02:03:00,15.2,2.0,29.86,WNW,295,17.0,29.0,55,0.00,,,0.00,weatherlink.com 1.10,2013-02-23 09:03:00,
2013-02-23 02:18:00,15.4,2.0,29.85,West,263,7.0,36.0,55,0.00,,,0.00,weatherlink.com 1.10,2013-02-23 09:18:00,
2013-02-23 02:33:00,15.3,2.0,29.85,West,271,4.0,28.0,55,0.00,,,0.00,weatherlink.com 1.10,2013-02-23 09:33:00,
2013-02-23 02:48:00,15.3,2.0,29.85,WNW,287,17.0,26.0,56,0.00,,,0.00,weatherlink.com 1.10,2013-02-23 09:48:00,
2013-02-23 03:03:00,15.4,2.0,29.85,WNW,286,9.0,28.0,56,0.00,,,0.00,weatherlink.com 1.10,2013-02-23 10:03:00,
2013-02-23 03:19:00,15.5,3.0,29.88,WNW,283,20.0,40.0,57,0.00,,,0.00,weatherlink.com 1.10,2013-02-23 10:19:00,
2013-02-23 03:34:00,15.5,3.0,29.88,NW,314,7.0,24.0,57,0.00,,,0.00,weatherlink.com 1.10,2013-02-23 10:34:00,
2013-02-23 03:49:00,15.7,2.0,29.87,ENE,77,5.0,19.0,55,0.00,,,0.00,weatherlink.com 1.10,2013-02-23 10:49:00,
2013-02-23 04:04:00,16.0,2.0,29.89,ESE,111,6.0,16.0,54,0.00,,,0.00,weatherlink.com 1.10,2013-02-23 11:04:00,
2013-02-23 04:19:00,16.1,2.0,29.91,ENE,57,9.0,15.0,54,0.00,,,0.00,weatherlink.com 1.10,2013-02-23 11:19:00,
2013-02-23 04:34:00,16.3,2.0,29.88,ESE,104,9.0,14.0,53,0.00,,,0.00,weatherlink.com 1.10,2013-02-23 11:34:00,
2013-02-23 04:49:00,17.0,3.0,29.87,West,264,1.0,19.0,54,0.00,,,0.00,weatherlink.com 1.10,2013-02-23 11:49:00,
2013-02-23 05:04:00,17.2,3.0,29.88,WSW,250,7.0,18.0,53,0.00,,,0.00,weatherlink.com 1.10,2013-02-23 12:04:00,
2013-02-23 05:19:00,16.5,2.0,29.89,SSW,213,3.0,15.0,53,0.00,,,0.00,weatherlink.com 1.10,2013-02-23 12:19:00,
2013-02-23 05:34:00,16.3,2.0,29.88,WSW,251,1.0,12.0,54,0.00,,,0.00,weatherlink.com 1.10,2013-02-23 12:34:00,
2013-02-23 05:49:00,16.6,3.0,29.88,WSW,243,7.0,10.0,55,0.00,,,0.00,weatherlink.com 1.10,2013-02-23 12:49:00,
2013-02-23 06:04:00,17.0,2.0,29.89,NW,311,3.0,8.0,53,0.00,,,0.00,weatherlink.com 1.10,2013-02-23 13:04:00,
2013-02-23 06:19:00,17.1,3.0,29.89,SSE,168,2.0,13.0,53,0.00,,,0.00,weatherlink.com 1.10,2013-02-23 13:19:00,
2013-02-23 06:34:00,17.1,3.0,29.89,SE,143,2.0,12.0,53,0.00,,,0.00,weatherlink.com 1.10,2013-02-23 13:34:00,
2013-02-23 06:49:00,17.6,3.0,29.89,NW,324,10.0,20.0,53,0.00,,,0.00,weatherlink.com 1.10,2013-02-23 13:49:00,
2013-02-23 07:04:00,17.8,3.0,29.93,WSW,243,17.0,22.0,53,0.00,,,0.00,weatherlink.com 1.10,2013-02-23 14:04:00,
2013-02-23 07:19:00,18.6,4.0,29.90,West,280,4.0,19.0,52,0.00,,,0.00,weatherlink.com 1.10,2013-02-23 14:19:00,
2013-02-23 07:34:00,19.6,4.0,29.92,WNW,294,8.0,13.0,51,0.00,,,0.00,weatherlink.com 1.10,2013-02-23 14:34:00,
2013-02-23 07:49:00,19.8,4.0,29.93,WNW,288,1.0,17.0,51,0.00,,,0.00,weatherlink.com 1.10,2013-02-23 14:49:00,
2013-02-23 08:04:00,19.5,5.0,29.94,SSW,203,1.0,14.0,53,0.00,,,0.00,weatherlink.com 1.10,2013-02-23 15:04:00,
2013-02-23 08:19:00,19.6,5.0,29.95,NW,326,8.0,12.0,54,0.00,,,0.00,weatherlink.com 1.10,2013-02-23 15:19:00,
2013-02-23 08:34:00,19.8,5.0,29.96,West,278,2.0,6.0,54,0.00,,,0.00,weatherlink.com 1.10,2013-02-23 15:34:00,
2013-02-23 08:49:00,20.5,6.0,29.95,West,274,6.0,15.0,53,0.00,,,0.00,weatherlink.com 1.10,2013-02-23 15:49:00,
2013-02-23 09:04:00,20.5,6.0,29.95,WSW,247,3.0,14.0,53,0.00,,,0.00,weatherlink.com 1.10,2013-02-23 16:04:00,
2013-02-23 09:19:00,20.4,6.0,29.94,South,174,0.0,9.0,54,0.00,,,0.00,weatherlink.com 1.10,2013-02-23 16:19:00,
2013-02-23 09:34:00,22.1,8.0,29.95,WNW,293,2.0,7.0,54,0.00,,,0.00,weatherlink.com 1.10,2013-02-23 16:34:00,
2013-02-23 09:50:00,23.9,8.0,29.93,WNW,297,5.0,9.0,52,0.00,,,0.00,weatherlink.com 1.10,2013-02-23 16:50:00,
2013-02-23 10:05:00,26.1,10.0,29.91,West,271,1.0,11.0,50,0.00,,,0.00,weatherlink.com 1.10,2013-02-23 17:05:00,
2013-02-23 10:20:00,27.3,10.0,29.90,NW,309,3.0,9.0,49,0.00,,,0.00,weatherlink.com 1.10,2013-02-23 17:20:00,
2013-02-23 10:35:00,27.4,10.0,29.89,West,266,1.0,10.0,48,0.00,,,0.00,weatherlink.com 1.10,2013-02-23 17:35:00,
2013-02-23 10:50:00,28.0,11.0,29.89,West,278,13.0,13.0,49,0.00,,,0.00,weatherlink.com 1.10,2013-02-23 17:50:00,
2013-02-23 11:05:00,28.6,12.0,29.88,WNW,291,2.0,13.0,49,0.00,,,0.00,weatherlink.com 1.10,2013-02-23 18:05:00,
2013-02-23 11:20:00,29.7,12.0,29.87,WNW,298,5.0,9.0,48,0.00,,,0.00,weatherlink.com 1.10,2013-02-23 18:20:00,
2013-02-23 11:35:00,30.2,13.0,29.86,NNW,328,9.0,18.0,50,0.00,,,0.00,weatherlink.com 1.10,2013-02-23 18:35:00,
2013-02-23 11:50:00,31.3,14.0,29.86,NNW,345,3.0,10.0,48,0.00,,,0.00,weatherlink.com 1.10,2013-02-23 18:50:00,
2013-02-23 12:05:00,31.1,14.0,29.85,North,9,1.0,14.0,50,0.00,,,0.00,weatherlink.com 1.10,2013-02-23 19:05:00,
2013-02-23 12:20:00,31.2,14.0,29.84,NNW,330,4.0,8.0,50,0.00,,,0.00,weatherlink.com 1.10,2013-02-23 19:20:00,
2013-02-23 12:35:00,31.1,13.0,29.84,SSE,148,4.0,19.0,48,0.00,,,0.00,weatherlink.com 1.10,2013-02-23 19:35:00,
2013-02-23 12:50:00,31.9,14.0,29.80,NW,323,8.0,16.0,47,0.00,,,0.00,weatherlink.com 1.10,2013-02-23 19:50:00,
2013-02-23 13:05:00,31.8,14.0,29.76,WNW,295,7.0,19.0,47,0.00,,,0.00,weatherlink.com 1.10,2013-02-23 20:05:00,
2013-02-23 13:20:00,32.3,13.0,29.75,WNW,289,3.0,24.0,46,0.00,,,0.00,weatherlink.com 1.10,2013-02-23 20:20:00,
2013-02-23 13:35:00,32.9,15.0,29.73,West,277,7.0,19.0,48,0.00,,,0.00,weatherlink.com 1.10,2013-02-23 20:35:00,
2013-02-23 13:51:00,33.3,14.0,29.73,WNW,294,3.0,18.0,46,0.00,,,0.00,weatherlink.com 1.10,2013-02-23 20:51:00,
2013-02-23 14:05:00,33.9,15.0,29.73,WNW,297,4.0,15.0,46,0.00,,,0.00,weatherlink.com 1.10,2013-02-23 21:05:00,
2013-02-23 14:20:00,34.1,15.0,29.74,West,271,8.0,19.0,46,0.00,,,0.00,weatherlink.com 1.10,2013-02-23 21:20:00,
2013-02-23 14:35:00,33.5,16.0,29.74,WNW,294,3.0,18.0,48,0.00,,,0.00,weatherlink.com 1.10,2013-02-23 21:35:00,
2013-02-23 14:50:00,32.7,15.0,29.74,WNW,297,10.0,13.0,49,0.00,,,0.00,weatherlink.com 1.10,2013-02-23 21:50:00,
2013-02-23 15:05:00,32.2,15.0,29.74,WSW,252,7.0,15.0,49,0.00,,,0.00,weatherlink.com 1.10,2013-02-23 22:05:00,
2013-02-23 15:20:00,32.1,15.0,29.74,WNW,298,5.0,16.0,50,0.00,,,0.00,weatherlink.com 1.10,2013-02-23 22:20:00,
2013-02-23 15:35:00,31.8,16.0,29.73,ESE,107,3.0,12.0,52,0.00,,,0.00,weatherlink.com 1.10,2013-02-23 22:35:00,
2013-02-23 15:50:00,31.7,15.0,29.73,West,264,6.0,15.0,50,0.00,,,0.00,weatherlink.com 1.10,2013-02-23 22:50:00,
2013-02-23 16:06:00,31.9,15.0,29.73,SE,124,5.0,9.0,50,0.00,,,0.00,weatherlink.com 1.10,2013-02-23 23:06:00,
2013-02-23 16:21:00,31.4,15.0,29.72,NW,322,2.0,8.0,52,0.00,,,0.00,weatherlink.com 1.10,2013-02-23 23:21:00,
2013-02-23 16:36:00,31.6,15.0,29.71,NW,322,2.0,6.0,50,0.00,,,0.00,weatherlink.com 1.10,2013-02-23 23:36:00,
2013-02-23 16:51:00,30.7,15.0,29.72,ESE,113,0.0,2.0,52,0.00,,,0.00,weatherlink.com 1.10,2013-02-23 23:51:00,
2013-02-23 17:06:00,30.0,15.0,29.72,SSW,203,0.0,3.0,53,0.00,,,0.00,weatherlink.com 1.10,2013-02-24 00:06:00,
2013-02-23 17:21:00,29.7,15.0,29.72,ENE,70,0.0,1.0,54,0.00,,,0.00,weatherlink.com 1.10,2013-02-24 00:21:00,
2013-02-23 17:37:00,29.0,15.0,29.73,WNW,283,0.0,1.0,57,0.00,,,0.00,weatherlink.com 1.10,2013-02-24 00:37:00,
2013-02-23 17:51:00,27.7,16.0,29.73,WNW,297,1.0,5.0,63,0.00,,,0.00,weatherlink.com 1.10,2013-02-24 00:51:00,
2013-02-23 18:06:00,27.2,16.0,29.74,North,355,3.0,3.0,64,0.00,,,0.00,weatherlink.com 1.10,2013-02-24 01:06:00,
2013-02-23 18:21:00,26.3,17.0,29.76,ENE,65,2.0,3.0,67,0.00,,,0.00,weatherlink.com 1.10,2013-02-24 01:21:00,
2013-02-23 18:36:00,25.9,17.0,29.76,ENE,68,0.0,0.0,68,0.00,,,0.00,weatherlink.com 1.10,2013-02-24 01:36:00,
2013-02-23 18:51:00,25.8,17.0,29.76,East,91,0.0,2.0,70,0.00,,,0.00,weatherlink.com 1.10,2013-02-24 01:51:00,
2013-02-23 19:06:00,25.5,17.0,29.76,SE,136,0.0,3.0,71,0.00,,,0.00,weatherlink.com 1.10,2013-02-24 02:06:00,
2013-02-23 19:21:00,25.3,17.0,29.76,ESE,122,0.0,1.0,71,0.00,,,0.00,weatherlink.com 1.10,2013-02-24 02:21:00,
2013-02-23 19:36:00,25.1,17.0,29.76,East,91,0.0,2.0,72,0.00,,,0.00,weatherlink.com 1.10,2013-02-24 02:36:00,
2013-02-23 19:51:00,25.0,17.0,29.76,East,91,0.0,0.0,71,0.00,,,0.00,weatherlink.com 1.10,2013-02-24 02:51:00,
2013-02-23 20:06:00,24.8,17.0,29.76,ENE,76,0.0,1.0,72,0.00,,,0.00,weatherlink.com 1.10,2013-02-24 03:06:00,
2013-02-23 20:21:00,24.4,17.0,29.76,East,89,0.0,1.0,72,0.00,,,0.00,weatherlink.com 1.10,2013-02-24 03:21:00,
2013-02-23 20:36:00,23.9,17.0,29.76,East,89,0.0,0.0,75,0.00,,,0.00,weatherlink.com 1.10,2013-02-24 03:36:00,
2013-02-23 20:51:00,23.5,16.0,29.77,East,89,0.0,0.0,74,0.00,,,0.00,weatherlink.com 1.10,2013-02-24 03:51:00,
2013-02-23 21:06:00,23.8,17.0,29.77,East,83,0.0,1.0,75,0.00,,,0.00,weatherlink.com 1.10,2013-02-24 04:06:00,
2013-02-23 21:21:00,23.7,17.0,29.77,East,79,1.0,1.0,76,0.00,,,0.00,weatherlink.com 1.10,2013-02-24 04:21:00,
2013-02-23 21:36:00,23.3,18.0,29.78,ENE,66,3.0,3.0,80,0.00,,,0.00,weatherlink.com 1.10,2013-02-24 04:36:00,
2013-02-23 21:51:00,22.1,18.0,29.78,ENE,58,2.0,5.0,85,0.00,,,0.00,weatherlink.com 1.10,2013-02-24 04:51:00,
2013-02-23 22:06:00,21.7,19.0,29.77,East,97,0.0,2.0,88,0.00,,,0.00,weatherlink.com 1.10,2013-02-24 05:06:00,
2013-02-23 22:21:00,21.0,18.0,29.76,ENE,68,4.0,4.0,88,0.00,,,0.00,weatherlink.com 1.10,2013-02-24 05:21:00,
2013-02-23 22:36:00,20.5,18.0,29.76,ESE,105,2.0,3.0,89,0.00,,,0.00,weatherlink.com 1.10,2013-02-24 05:36:00,
2013-02-23 22:51:00,20.1,17.0,29.76,ENE,76,2.0,5.0,88,0.00,,,0.00,weatherlink.com 1.10,2013-02-24 05:51:00,
2013-02-23 23:06:00,19.6,17.0,29.76,ESE,103,0.0,2.0,88,0.00,,,0.00,weatherlink.com 1.10,2013-02-24 06:06:00,
2013-02-23 23:21:00,19.1,16.0,29.76,ENE,64,1.0,5.0,88,0.00,,,0.00,weatherlink.com 1.10,2013-02-24 06:21:00,
2013-02-23 23:36:00,18.9,16.0,29.75,SE,126,1.0,4.0,89,0.00,,,0.00,weatherlink.com 1.10,2013-02-24 06:36:00,
2013-02-23 23:51:00,18.7,16.0,29.76,ENE,58,0.0,2.0,89,0.00,,,0.00,weatherlink.com 1.10,2013-02-24 06:51:00,